Aberdeen, North Carolina
Current Conditions -  °F | °C
As of 12:35 AM on Wednesday 22 Oct 2014 (Local Time) from KSOP Reporting Station
Overcast Overcast  
Wind Chill: 55°   Ceiling: 10000
Heat Index: 55°   Visibility: 10mi
Dew Point: 37°   Wind: 8mph
Humidity: 51%   Direction: 340°NNW
Pressure: 29.96"   Gusts: NA
Location:  35.13°N, 79.43°W
Report Text: KSOP 220435Z AUTO 34007KT 270V010 10SM SCT075 OVC100 13/03 A2996 RMK AO1
Loading
Personal Weather Stations






























Interactive Weather Map
Tropical Storm Tracking
New forecast layout! Learn more

10-Day Weather Forecast

Advertisements
Track Severe Weather on mobile